sensor_id;sensor_type;location;lat;lon;timestamp;P1;durP1;ratioP1;P2;durP2;ratioP2
44822;SDS011;51097;51.984;5.650;2023-08-20T00:01:22;13.80;;;7.10;;
44822;SDS011;51097;51.984;5.650;2023-08-20T00:03:50;10.68;;;7.53;;
44822;SDS011;51097;51.984;5.650;2023-08-20T00:06:17;16.45;;;8.63;;
44822;SDS011;51097;51.984;5.650;2023-08-20T00:08:43;10.30;;;7.38;;
44822;SDS011;51097;51.984;5.650;2023-08-20T00:11:09;12.90;;;7.75;;
44822;SDS011;51097;51.984;5.650;2023-08-20T00:13:36;9.55;;;7.22;;
44822;SDS011;51097;51.984;5.650;2023-08-20T00:16:04;10.40;;;7.68;;
44822;SDS011;51097;51.984;5.650;2023-08-20T00:18:30;13.35;;;8.00;;
44822;SDS011;51097;51.984;5.650;2023-08-20T00:20:59;13.27;;;8.13;;
44822;SDS011;51097;51.984;5.650;2023-08-20T00:23:26;13.23;;;8.23;;
44822;SDS011;51097;51.984;5.650;2023-08-20T00:25:54;15.18;;;10.20;;
44822;SDS011;51097;51.984;5.650;2023-08-20T00:28:20;12.35;;;8.07;;
44822;SDS011;51097;51.984;5.650;2023-08-20T00:30:46;16.13;;;8.70;;
44822;SDS011;51097;51.984;5.650;2023-08-20T00:33:12;11.07;;;8.30;;
44822;SDS011;51097;51.984;5.650;2023-08-20T00:35:38;11.25;;;7.95;;
44822;SDS011;51097;51.984;5.650;2023-08-20T00:38:05;13.85;;;8.32;;
44822;SDS011;51097;51.984;5.650;2023-08-20T00:40:31;11.45;;;8.30;;
44822;SDS011;51097;51.984;5.650;2023-08-20T00:42:56;13.90;;;8.07;;
44822;SDS011;51097;51.984;5.650;2023-08-20T00:45:22;12.02;;;8.02;;
44822;SDS011;51097;51.984;5.650;2023-08-20T00:47:49;14.98;;;9.35;;
44822;SDS011;51097;51.984;5.650;2023-08-20T00:50:15;10.82;;;8.02;;
44822;SDS011;51097;51.984;5.650;2023-08-20T00:52:41;14.05;;;8.43;;
44822;SDS011;51097;51.984;5.650;2023-08-20T00:55:11;15.85;;;9.15;;
44822;SDS011;51097;51.984;5.650;2023-08-20T00:57:38;9.43;;;8.48;;
44822;SDS011;51097;51.984;5.650;2023-08-20T01:00:05;11.77;;;8.55;;
44822;SDS011;51097;51.984;5.650;2023-08-20T01:02:35;12.43;;;8.13;;
44822;SDS011;51097;51.984;5.650;2023-08-20T01:05:02;12.73;;;10.57;;
44822;SDS011;51097;51.984;5.650;2023-08-20T01:07:39;17.42;;;9.98;;
44822;SDS011;51097;51.984;5.650;2023-08-20T01:10:44;13.27;;;9.27;;
44822;SDS011;51097;51.984;5.650;2023-08-20T01:13:22;13.77;;;9.95;;
44822;SDS011;51097;51.984;5.650;2023-08-20T01:15:48;13.20;;;9.82;;
44822;SDS011;51097;51.984;5.650;2023-08-20T01:18:14;11.95;;;8.73;;
44822;SDS011;51097;51.984;5.650;2023-08-20T01:20:40;14.15;;;8.70;;
44822;SDS011;51097;51.984;5.650;2023-08-20T01:29:09;15.20;;;8.85;;
44822;SDS011;51097;51.984;5.650;2023-08-20T01:31:36;18.80;;;11.32;;
44822;SDS011;51097;51.984;5.650;2023-08-20T01:34:03;11.45;;;8.93;;
44822;SDS011;51097;51.984;5.650;2023-08-20T01:36:29;11.13;;;9.25;;
44822;SDS011;51097;51.984;5.650;2023-08-20T01:38:54;11.85;;;8.60;;
44822;SDS011;51097;51.984;5.650;2023-08-20T01:41:20;11.32;;;9.50;;
44822;SDS011;51097;51.984;5.650;2023-08-20T01:43:45;11.77;;;8.93;;
44822;SDS011;51097;51.984;5.650;2023-08-20T01:46:11;18.40;;;10.95;;
44822;SDS011;51097;51.984;5.650;2023-08-20T01:48:37;15.30;;;11.77;;
44822;SDS011;51097;51.984;5.650;2023-08-20T01:51:03;13.05;;;9.50;;
44822;SDS011;51097;51.984;5.650;2023-08-20T01:53:29;11.32;;;8.35;;
44822;SDS011;51097;51.984;5.650;2023-08-20T01:55:54;11.38;;;10.02;;
44822;SDS011;51097;51.984;5.650;2023-08-20T01:58:20;13.32;;;9.07;;
44822;SDS011;51097;51.984;5.650;2023-08-20T02:00:46;14.98;;;7.65;;
44822;SDS011;51097;51.984;5.650;2023-08-20T02:03:12;9.75;;;7.35;;
44822;SDS011;51097;51.984;5.650;2023-08-20T02:05:38;10.95;;;8.07;;
44822;SDS011;51097;51.984;5.650;2023-08-20T02:08:04;11.75;;;8.48;;
44822;SDS011;51097;51.984;5.650;2023-08-20T02:10:29;10.98;;;8.07;;
44822;SDS011;51097;51.984;5.650;2023-08-20T02:12:55;9.27;;;8.30;;
44822;SDS011;51097;51.984;5.650;2023-08-20T02:15:23;12.13;;;9.48;;
44822;SDS011;51097;51.984;5.650;2023-08-20T02:17:48;12.45;;;8.23;;
44822;SDS011;51097;51.984;5.650;2023-08-20T02:20:14;9.60;;;8.70;;
44822;SDS011;51097;51.984;5.650;2023-08-20T02:22:39;8.70;;;7.38;;
44822;SDS011;51097;51.984;5.650;2023-08-20T02:25:05;15.68;;;8.88;;
44822;SDS011;51097;51.984;5.650;2023-08-20T02:27:31;11.80;;;7.72;;
44822;SDS011;51097;51.984;5.650;2023-08-20T02:29:57;10.80;;;7.72;;
44822;SDS011;51097;51.984;5.650;2023-08-20T02:32:22;11.43;;;7.40;;
44822;SDS011;51097;51.984;5.650;2023-08-20T02:34:49;15.25;;;8.23;;
44822;SDS011;51097;51.984;5.650;2023-08-20T02:37:16;11.85;;;8.02;;
44822;SDS011;51097;51.984;5.650;2023-08-20T02:39:41;10.20;;;8.02;;
44822;SDS011;51097;51.984;5.650;2023-08-20T02:42:07;10.02;;;8.23;;
44822;SDS011;51097;51.984;5.650;2023-08-20T02:44:32;11.88;;;7.63;;
44822;SDS011;51097;51.984;5.650;2023-08-20T02:46:58;11.40;;;8.38;;
44822;SDS011;51097;51.984;5.650;2023-08-20T02:49:23;11.48;;;8.30;;
44822;SDS011;51097;51.984;5.650;2023-08-20T02:51:49;12.30;;;8.70;;
44822;SDS011;51097;51.984;5.650;2023-08-20T02:54:15;13.10;;;9.25;;
44822;SDS011;51097;51.984;5.650;2023-08-20T02:56:40;10.48;;;9.32;;
44822;SDS011;51097;51.984;5.650;2023-08-20T02:59:06;10.43;;;9.30;;
44822;SDS011;51097;51.984;5.650;2023-08-20T03:01:32;10.23;;;9.05;;
44822;SDS011;51097;51.984;5.650;2023-08-20T03:03:57;10.38;;;8.02;;
44822;SDS011;51097;51.984;5.650;2023-08-20T03:06:23;13.27;;;9.35;;
44822;SDS011;51097;51.984;5.650;2023-08-20T03:08:48;10.85;;;9.07;;
44822;SDS011;51097;51.984;5.650;2023-08-20T03:11:14;10.10;;;8.73;;
44822;SDS011;51097;51.984;5.650;2023-08-20T03:13:39;13.02;;;10.43;;
44822;SDS011;51097;51.984;5.650;2023-08-20T03:16:05;14.75;;;10.45;;
44822;SDS011;51097;51.984;5.650;2023-08-20T03:18:31;14.27;;;9.82;;
44822;SDS011;51097;51.984;5.650;2023-08-20T03:20:56;17.60;;;12.27;;
44822;SDS011;51097;51.984;5.650;2023-08-20T03:23:22;16.52;;;12.73;;
44822;SDS011;51097;51.984;5.650;2023-08-20T03:25:49;16.90;;;12.13;;
44822;SDS011;51097;51.984;5.650;2023-08-20T03:28:15;13.63;;;12.32;;
44822;SDS011;51097;51.984;5.650;2023-08-20T03:30:40;18.88;;;14.32;;
44822;SDS011;51097;51.984;5.650;2023-08-20T03:33:06;17.48;;;13.40;;
44822;SDS011;51097;51.984;5.650;2023-08-20T03:35:32;17.73;;;12.68;;
44822;SDS011;51097;51.984;5.650;2023-08-20T03:37:57;18.35;;;14.50;;
44822;SDS011;51097;51.984;5.650;2023-08-20T03:40:23;17.73;;;14.38;;
44822;SDS011;51097;51.984;5.650;2023-08-20T03:42:49;20.15;;;14.43;;
44822;SDS011;51097;51.984;5.650;2023-08-20T03:45:14;21.90;;;15.90;;
44822;SDS011;51097;51.984;5.650;2023-08-20T03:47:40;25.15;;;16.05;;
44822;SDS011;51097;51.984;5.650;2023-08-20T03:50:09;20.38;;;16.27;;
44822;SDS011;51097;51.984;5.650;2023-08-20T03:52:35;22.02;;;16.73;;
44822;SDS011;51097;51.984;5.650;2023-08-20T03:55:01;20.58;;;15.32;;
44822;SDS011;51097;51.984;5.650;2023-08-20T03:57:30;21.08;;;16.83;;
44822;SDS011;51097;51.984;5.650;2023-08-20T03:59:56;16.33;;;14.57;;
44822;SDS011;51097;51.984;5.650;2023-08-20T04:02:21;23.50;;;16.38;;
44822;SDS011;51097;51.984;5.650;2023-08-20T04:04:48;20.00;;;14.77;;
44822;SDS011;51097;51.984;5.650;2023-08-20T04:07:13;21.15;;;15.77;;
44822;SDS011;51097;51.984;5.650;2023-08-20T04:09:39;20.60;;;15.88;;
44822;SDS011;51097;51.984;5.650;2023-08-20T04:12:05;18.02;;;14.82;;
44822;SDS011;51097;51.984;5.650;2023-08-20T04:14:31;17.80;;;15.70;;
44822;SDS011;51097;51.984;5.650;2023-08-20T04:16:57;17.42;;;13.40;;
44822;SDS011;51097;51.984;5.650;2023-08-20T04:19:22;18.13;;;15.30;;
44822;SDS011;51097;51.984;5.650;2023-08-20T04:21:48;23.73;;;15.85;;
44822;SDS011;51097;51.984;5.650;2023-08-20T04:24:14;18.05;;;15.82;;
44822;SDS011;51097;51.984;5.650;2023-08-20T04:26:42;16.30;;;13.70;;
44822;SDS011;51097;51.984;5.650;2023-08-20T04:29:08;19.03;;;14.97;;
44822;SDS011;51097;51.984;5.650;2023-08-20T04:31:34;17.38;;;14.57;;
44822;SDS011;51097;51.984;5.650;2023-08-20T04:34:00;15.70;;;14.07;;
44822;SDS011;51097;51.984;5.650;2023-08-20T04:36:25;20.05;;;15.88;;
44822;SDS011;51097;51.984;5.650;2023-08-20T04:38:51;21.98;;;16.23;;
44822;SDS011;51097;51.984;5.650;2023-08-20T04:41:17;20.83;;;15.35;;
44822;SDS011;51097;51.984;5.650;2023-08-20T04:43:42;17.15;;;14.35;;
44822;SDS011;51097;51.984;5.650;2023-08-20T04:46:08;21.25;;;14.57;;
44822;SDS011;51097;51.984;5.650;2023-08-20T04:48:33;18.90;;;14.20;;
44822;SDS011;51097;51.984;5.650;2023-08-20T04:50:59;19.85;;;14.98;;
44822;SDS011;51097;51.984;5.650;2023-08-20T04:53:25;17.95;;;14.93;;
44822;SDS011;51097;51.984;5.650;2023-08-20T04:55:51;16.73;;;13.15;;
44822;SDS011;51097;51.984;5.650;2023-08-20T04:58:16;14.93;;;12.70;;
44822;SDS011;51097;51.984;5.650;2023-08-20T05:00:42;15.40;;;12.65;;
44822;SDS011;51097;51.984;5.650;2023-08-20T05:03:08;15.90;;;12.15;;
44822;SDS011;51097;51.984;5.650;2023-08-20T05:05:33;12.82;;;11.50;;
44822;SDS011;51097;51.984;5.650;2023-08-20T05:07:59;13.15;;;11.77;;
44822;SDS011;51097;51.984;5.650;2023-08-20T05:10:24;13.50;;;10.85;;
44822;SDS011;51097;51.984;5.650;2023-08-20T05:12:50;15.55;;;11.45;;
44822;SDS011;51097;51.984;5.650;2023-08-20T05:15:19;14.25;;;10.70;;
44822;SDS011;51097;51.984;5.650;2023-08-20T05:17:45;14.02;;;11.93;;
44822;SDS011;51097;51.984;5.650;2023-08-20T05:20:10;14.30;;;12.57;;
44822;SDS011;51097;51.984;5.650;2023-08-20T05:22:36;16.67;;;12.82;;
44822;SDS011;51097;51.984;5.650;2023-08-20T05:25:02;12.93;;;11.52;;
44822;SDS011;51097;51.984;5.650;2023-08-20T05:27:27;14.57;;;12.38;;
44822;SDS011;51097;51.984;5.650;2023-08-20T05:29:53;15.95;;;13.30;;
44822;SDS011;51097;51.984;5.650;2023-08-20T05:32:19;18.48;;;13.45;;
44822;SDS011;51097;51.984;5.650;2023-08-20T05:34:44;19.23;;;13.68;;
44822;SDS011;51097;51.984;5.650;2023-08-20T05:37:10;15.60;;;14.10;;
44822;SDS011;51097;51.984;5.650;2023-08-20T05:39:36;16.52;;;14.63;;
44822;SDS011;51097;51.984;5.650;2023-08-20T05:42:07;15.82;;;14.10;;
44822;SDS011;51097;51.984;5.650;2023-08-20T05:44:32;20.95;;;14.52;;
44822;SDS011;51097;51.984;5.650;2023-08-20T05:46:58;20.40;;;14.30;;
44822;SDS011;51097;51.984;5.650;2023-08-20T05:49:23;18.92;;;14.50;;
44822;SDS011;51097;51.984;5.650;2023-08-20T05:51:49;24.05;;;15.93;;
44822;SDS011;51097;51.984;5.650;2023-08-20T05:54:15;19.08;;;14.32;;
44822;SDS011;51097;51.984;5.650;2023-08-20T05:56:40;16.52;;;13.70;;
44822;SDS011;51097;51.984;5.650;2023-08-20T05:59:06;18.55;;;14.35;;
44822;SDS011;51097;51.984;5.650;2023-08-20T06:01:32;17.55;;;14.70;;
44822;SDS011;51097;51.984;5.650;2023-08-20T06:03:57;21.42;;;13.55;;
44822;SDS011;51097;51.984;5.650;2023-08-20T06:06:23;15.43;;;13.82;;
44822;SDS011;51097;51.984;5.650;2023-08-20T06:08:48;18.08;;;14.85;;
44822;SDS011;51097;51.984;5.650;2023-08-20T06:11:14;26.13;;;16.50;;
44822;SDS011;51097;51.984;5.650;2023-08-20T06:13:39;25.42;;;14.73;;
44822;SDS011;51097;51.984;5.650;2023-08-20T06:16:06;18.67;;;13.07;;
44822;SDS011;51097;51.984;5.650;2023-08-20T06:18:32;19.52;;;12.45;;
44822;SDS011;51097;51.984;5.650;2023-08-20T06:20:58;18.20;;;12.93;;
44822;SDS011;51097;51.984;5.650;2023-08-20T06:23:24;15.77;;;10.98;;
44822;SDS011;51097;51.984;5.650;2023-08-20T06:25:52;19.75;;;11.52;;
44822;SDS011;51097;51.984;5.650;2023-08-20T06:28:18;21.30;;;12.30;;
44822;SDS011;51097;51.984;5.650;2023-08-20T06:30:44;20.75;;;11.02;;
44822;SDS011;51097;51.984;5.650;2023-08-20T06:33:10;15.73;;;10.05;;
44822;SDS011;51097;51.984;5.650;2023-08-20T06:35:36;17.83;;;9.85;;
44822;SDS011;51097;51.984;5.650;2023-08-20T06:38:02;14.38;;;10.60;;
44822;SDS011;51097;51.984;5.650;2023-08-20T06:40:28;15.23;;;10.77;;
44822;SDS011;51097;51.984;5.650;2023-08-20T06:42:54;15.27;;;10.10;;
44822;SDS011;51097;51.984;5.650;2023-08-20T06:45:19;18.42;;;9.20;;
44822;SDS011;51097;51.984;5.650;2023-08-20T06:47:45;16.85;;;8.82;;
44822;SDS011;51097;51.984;5.650;2023-08-20T06:50:10;15.57;;;8.00;;
44822;SDS011;51097;51.984;5.650;2023-08-20T06:52:36;12.98;;;6.70;;
44822;SDS011;51097;51.984;5.650;2023-08-20T06:55:02;15.18;;;7.30;;
44822;SDS011;51097;51.984;5.650;2023-08-20T06:57:28;16.73;;;6.70;;
44822;SDS011;51097;51.984;5.650;2023-08-20T06:59:54;15.55;;;7.25;;
44822;SDS011;51097;51.984;5.650;2023-08-20T07:02:19;14.68;;;7.47;;
44822;SDS011;51097;51.984;5.650;2023-08-20T07:04:45;12.38;;;7.30;;
44822;SDS011;51097;51.984;5.650;2023-08-20T07:07:11;15.82;;;7.97;;
44822;SDS011;51097;51.984;5.650;2023-08-20T07:09:37;12.95;;;7.15;;
44822;SDS011;51097;51.984;5.650;2023-08-20T07:12:04;15.02;;;5.85;;
44822;SDS011;51097;51.984;5.650;2023-08-20T07:14:30;10.50;;;5.60;;
44822;SDS011;51097;51.984;5.650;2023-08-20T07:16:55;11.52;;;6.45;;
44822;SDS011;51097;51.984;5.650;2023-08-20T07:19:21;10.48;;;4.93;;
44822;SDS011;51097;51.984;5.650;2023-08-20T07:21:47;12.98;;;5.60;;
44822;SDS011;51097;51.984;5.650;2023-08-20T07:24:12;10.95;;;5.90;;
44822;SDS011;51097;51.984;5.650;2023-08-20T07:26:38;9.98;;;5.72;;
44822;SDS011;51097;51.984;5.650;2023-08-20T07:29:04;14.45;;;4.82;;
44822;SDS011;51097;51.984;5.650;2023-08-20T07:31:33;13.93;;;4.30;;
44822;SDS011;51097;51.984;5.650;2023-08-20T07:34:00;12.55;;;4.53;;
44822;SDS011;51097;51.984;5.650;2023-08-20T07:36:29;13.10;;;4.82;;
44822;SDS011;51097;51.984;5.650;2023-08-20T07:38:55;8.00;;;3.58;;
44822;SDS011;51097;51.984;5.650;2023-08-20T07:41:21;10.00;;;3.67;;
44822;SDS011;51097;51.984;5.650;2023-08-20T07:43:47;11.95;;;3.40;;
44822;SDS011;51097;51.984;5.650;2023-08-20T07:46:13;8.18;;;2.90;;
44822;SDS011;51097;51.984;5.650;2023-08-20T07:48:40;7.78;;;3.10;;
44822;SDS011;51097;51.984;5.650;2023-08-20T07:51:08;10.73;;;4.20;;
44822;SDS011;51097;51.984;5.650;2023-08-20T07:53:34;9.77;;;3.22;;
44822;SDS011;51097;51.984;5.650;2023-08-20T07:56:00;12.52;;;2.67;;
44822;SDS011;51097;51.984;5.650;2023-08-20T07:58:26;5.28;;;2.22;;
44822;SDS011;51097;51.984;5.650;2023-08-20T08:00:56;8.85;;;3.03;;
44822;SDS011;51097;51.984;5.650;2023-08-20T08:05:50;9.98;;;2.35;;
44822;SDS011;51097;51.984;5.650;2023-08-20T08:08:17;8.98;;;3.03;;
44822;SDS011;51097;51.984;5.650;2023-08-20T08:10:44;9.68;;;4.10;;
44822;SDS011;51097;51.984;5.650;2023-08-20T08:13:14;10.93;;;2.88;;
44822;SDS011;51097;51.984;5.650;2023-08-20T08:15:41;9.82;;;2.65;;
44822;SDS011;51097;51.984;5.650;2023-08-20T08:18:10;5.80;;;2.30;;
44822;SDS011;51097;51.984;5.650;2023-08-20T08:20:37;8.00;;;2.83;;
44822;SDS011;51097;51.984;5.650;2023-08-20T08:23:03;6.32;;;2.75;;
44822;SDS011;51097;51.984;5.650;2023-08-20T08:25:29;11.60;;;3.38;;
44822;SDS011;51097;51.984;5.650;2023-08-20T08:27:56;11.77;;;2.60;;
44822;SDS011;51097;51.984;5.650;2023-08-20T08:30:21;6.88;;;2.55;;
44822;SDS011;51097;51.984;5.650;2023-08-20T08:32:47;9.02;;;2.17;;
44822;SDS011;51097;51.984;5.650;2023-08-20T08:35:13;5.20;;;2.10;;
44822;SDS011;51097;51.984;5.650;2023-08-20T08:37:39;5.65;;;2.13;;
44822;SDS011;51097;51.984;5.650;2023-08-20T08:40:04;8.13;;;1.83;;
44822;SDS011;51097;51.984;5.650;2023-08-20T08:42:31;8.32;;;2.38;;
44822;SDS011;51097;51.984;5.650;2023-08-20T08:44:58;6.45;;;2.00;;
44822;SDS011;51097;51.984;5.650;2023-08-20T08:47:25;6.40;;;2.20;;
44822;SDS011;51097;51.984;5.650;2023-08-20T08:49:51;5.72;;;2.17;;
44822;SDS011;51097;51.984;5.650;2023-08-20T08:52:18;5.78;;;1.60;;
44822;SDS011;51097;51.984;5.650;2023-08-20T08:54:45;8.73;;;2.35;;
44822;SDS011;51097;51.984;5.650;2023-08-20T08:57:11;5.20;;;2.13;;
44822;SDS011;51097;51.984;5.650;2023-08-20T08:59:37;6.47;;;1.80;;
44822;SDS011;51097;51.984;5.650;2023-08-20T09:02:07;6.07;;;2.20;;
44822;SDS011;51097;51.984;5.650;2023-08-20T09:04:34;4.18;;;1.55;;
44822;SDS011;51097;51.984;5.650;2023-08-20T09:07:03;4.47;;;1.25;;
44822;SDS011;51097;51.984;5.650;2023-08-20T09:09:29;5.07;;;1.17;;
44822;SDS011;51097;51.984;5.650;2023-08-20T09:11:56;4.93;;;1.60;;
44822;SDS011;51097;51.984;5.650;2023-08-20T09:14:28;6.82;;;1.88;;
44822;SDS011;51097;51.984;5.650;2023-08-20T09:16:55;5.13;;;1.45;;
44822;SDS011;51097;51.984;5.650;2023-08-20T09:19:28;5.38;;;1.52;;
44822;SDS011;51097;51.984;5.650;2023-08-20T09:21:58;4.03;;;1.25;;
44822;SDS011;51097;51.984;5.650;2023-08-20T09:27:12;3.42;;;1.00;;
44822;SDS011;51097;51.984;5.650;2023-08-20T09:29:48;3.10;;;1.05;;
44822;SDS011;51097;51.984;5.650;2023-08-20T09:32:22;1.83;;;1.30;;
44822;SDS011;51097;51.984;5.650;2023-08-20T09:34:52;3.30;;;1.08;;
44822;SDS011;51097;51.984;5.650;2023-08-20T09:37:20;1.77;;;1.05;;
44822;SDS011;51097;51.984;5.650;2023-08-20T09:39:47;2.97;;;1.33;;
44822;SDS011;51097;51.984;5.650;2023-08-20T09:42:14;5.90;;;1.00;;
44822;SDS011;51097;51.984;5.650;2023-08-20T09:44:46;4.05;;;1.05;;
44822;SDS011;51097;51.984;5.650;2023-08-20T09:47:14;1.45;;;1.05;;
44822;SDS011;51097;51.984;5.650;2023-08-20T09:49:44;3.60;;;0.90;;
44822;SDS011;51097;51.984;5.650;2023-08-20T09:52:11;2.35;;;0.85;;
44822;SDS011;51097;51.984;5.650;2023-08-20T09:54:50;4.80;;;1.60;;
44822;SDS011;51097;51.984;5.650;2023-08-20T09:57:33;3.92;;;0.80;;
44822;SDS011;51097;51.984;5.650;2023-08-20T10:00:02;2.30;;;1.25;;
44822;SDS011;51097;51.984;5.650;2023-08-20T10:02:34;3.47;;;0.82;;
44822;SDS011;51097;51.984;5.650;2023-08-20T10:05:00;3.63;;;0.85;;
44822;SDS011;51097;51.984;5.650;2023-08-20T10:07:29;2.53;;;0.90;;
44822;SDS011;51097;51.984;5.650;2023-08-20T10:10:01;2.30;;;1.15;;
44822;SDS011;51097;51.984;5.650;2023-08-20T10:12:28;4.57;;;0.73;;
44822;SDS011;51097;51.984;5.650;2023-08-20T10:14:57;3.58;;;1.10;;
44822;SDS011;51097;51.984;5.650;2023-08-20T10:17:24;2.17;;;0.77;;
44822;SDS011;51097;51.984;5.650;2023-08-20T10:19:54;1.77;;;0.70;;
44822;SDS011;51097;51.984;5.650;2023-08-20T10:22:22;5.93;;;1.35;;
44822;SDS011;51097;51.984;5.650;2023-08-20T10:24:48;6.13;;;0.80;;
44822;SDS011;51097;51.984;5.650;2023-08-20T10:27:31;3.95;;;1.60;;
44822;SDS011;51097;51.984;5.650;2023-08-20T10:29:58;3.35;;;0.82;;
44822;SDS011;51097;51.984;5.650;2023-08-20T10:35:10;3.45;;;1.15;;
44822;SDS011;51097;51.984;5.650;2023-08-20T10:37:36;4.47;;;1.13;;
44822;SDS011;51097;51.984;5.650;2023-08-20T10:40:02;3.30;;;0.95;;
44822;SDS011;51097;51.984;5.650;2023-08-20T10:42:29;4.95;;;1.17;;
44822;SDS011;51097;51.984;5.650;2023-08-20T10:44:59;7.18;;;1.20;;
44822;SDS011;51097;51.984;5.650;2023-08-20T10:47:35;4.20;;;0.80;;
44822;SDS011;51097;51.984;5.650;2023-08-20T10:50:09;3.45;;;1.02;;
44822;SDS011;51097;51.984;5.650;2023-08-20T10:52:39;3.97;;;1.08;;
44822;SDS011;51097;51.984;5.650;2023-08-20T10:55:09;4.38;;;0.95;;
44822;SDS011;51097;51.984;5.650;2023-08-20T10:57:35;6.18;;;1.58;;
44822;SDS011;51097;51.984;5.650;2023-08-20T11:00:02;5.15;;;1.35;;
44822;SDS011;51097;51.984;5.650;2023-08-20T11:02:36;4.85;;;1.30;;
44822;SDS011;51097;51.984;5.650;2023-08-20T11:05:03;2.75;;;0.90;;
44822;SDS011;51097;51.984;5.650;2023-08-20T11:07:30;4.53;;;0.82;;
44822;SDS011;51097;51.984;5.650;2023-08-20T11:09:57;2.60;;;1.52;;
44822;SDS011;51097;51.984;5.650;2023-08-20T11:12:23;5.35;;;1.38;;
44822;SDS011;51097;51.984;5.650;2023-08-20T11:14:48;4.00;;;1.20;;
44822;SDS011;51097;51.984;5.650;2023-08-20T11:17:14;4.20;;;1.08;;
44822;SDS011;51097;51.984;5.650;2023-08-20T11:19:40;2.45;;;0.93;;
44822;SDS011;51097;51.984;5.650;2023-08-20T11:22:05;4.65;;;1.40;;
44822;SDS011;51097;51.984;5.650;2023-08-20T11:24:33;3.05;;;0.80;;
44822;SDS011;51097;51.984;5.650;2023-08-20T11:26:58;3.10;;;0.82;;
44822;SDS011;51097;51.984;5.650;2023-08-20T11:29:25;3.70;;;1.02;;
44822;SDS011;51097;51.984;5.650;2023-08-20T11:31:51;2.97;;;1.10;;
44822;SDS011;51097;51.984;5.650;2023-08-20T11:34:20;4.38;;;1.05;;
44822;SDS011;51097;51.984;5.650;2023-08-20T11:36:46;3.17;;;1.00;;
44822;SDS011;51097;51.984;5.650;2023-08-20T11:39:13;3.50;;;0.90;;
44822;SDS011;51097;51.984;5.650;2023-08-20T11:41:39;3.80;;;0.93;;
44822;SDS011;51097;51.984;5.650;2023-08-20T11:44:07;2.97;;;0.80;;
44822;SDS011;51097;51.984;5.650;2023-08-20T11:46:33;3.13;;;1.50;;
44822;SDS011;51097;51.984;5.650;2023-08-20T11:49:08;3.45;;;1.10;;
44822;SDS011;51097;51.984;5.650;2023-08-20T11:54:09;4.30;;;1.15;;
44822;SDS011;51097;51.984;5.650;2023-08-20T11:56:42;3.15;;;0.70;;
44822;SDS011;51097;51.984;5.650;2023-08-20T11:59:10;3.60;;;1.23;;
44822;SDS011;51097;51.984;5.650;2023-08-20T12:01:36;3.10;;;1.10;;
44822;SDS011;51097;51.984;5.650;2023-08-20T12:04:05;2.22;;;0.82;;
44822;SDS011;51097;51.984;5.650;2023-08-20T12:06:33;6.45;;;1.20;;
44822;SDS011;51097;51.984;5.650;2023-08-20T12:09:21;1.30;;;0.60;;
44822;SDS011;51097;51.984;5.650;2023-08-20T12:11:48;5.00;;;0.93;;
44822;SDS011;51097;51.984;5.650;2023-08-20T12:14:18;3.60;;;0.93;;
44822;SDS011;51097;51.984;5.650;2023-08-20T12:16:44;2.40;;;0.82;;
44822;SDS011;51097;51.984;5.650;2023-08-20T12:19:10;3.83;;;0.98;;
44822;SDS011;51097;51.984;5.650;2023-08-20T12:21:35;5.68;;;1.35;;
44822;SDS011;51097;51.984;5.650;2023-08-20T12:24:01;2.97;;;1.67;;
44822;SDS011;51097;51.984;5.650;2023-08-20T12:26:26;5.57;;;1.35;;
44822;SDS011;51097;51.984;5.650;2023-08-20T12:28:52;2.83;;;1.00;;
44822;SDS011;51097;51.984;5.650;2023-08-20T12:31:17;3.85;;;1.35;;
44822;SDS011;51097;51.984;5.650;2023-08-20T12:33:43;2.67;;;1.15;;
44822;SDS011;51097;51.984;5.650;2023-08-20T12:36:09;4.43;;;1.08;;
44822;SDS011;51097;51.984;5.650;2023-08-20T12:38:34;4.18;;;1.70;;
44822;SDS011;51097;51.984;5.650;2023-08-20T12:41:00;3.95;;;1.00;;
44822;SDS011;51097;51.984;5.650;2023-08-20T12:43:26;4.30;;;0.95;;
44822;SDS011;51097;51.984;5.650;2023-08-20T12:45:52;3.72;;;1.13;;
44822;SDS011;51097;51.984;5.650;2023-08-20T12:48:18;3.58;;;1.48;;
44822;SDS011;51097;51.984;5.650;2023-08-20T12:50:43;6.80;;;1.85;;
44822;SDS011;51097;51.984;5.650;2023-08-20T12:53:09;3.20;;;1.10;;
44822;SDS011;51097;51.984;5.650;2023-08-20T12:55:34;3.58;;;1.17;;
44822;SDS011;51097;51.984;5.650;2023-08-20T12:58:03;4.32;;;1.25;;
44822;SDS011;51097;51.984;5.650;2023-08-20T13:00:29;2.53;;;1.00;;
44822;SDS011;51097;51.984;5.650;2023-08-20T13:02:55;2.78;;;1.05;;
44822;SDS011;51097;51.984;5.650;2023-08-20T13:05:22;3.05;;;1.08;;
44822;SDS011;51097;51.984;5.650;2023-08-20T13:07:49;2.53;;;0.93;;
44822;SDS011;51097;51.984;5.650;2023-08-20T13:10:15;2.55;;;0.93;;
44822;SDS011;51097;51.984;5.650;2023-08-20T13:12:41;5.65;;;1.20;;
44822;SDS011;51097;51.984;5.650;2023-08-20T13:15:09;2.40;;;1.10;;
44822;SDS011;51097;51.984;5.650;2023-08-20T13:17:35;3.80;;;1.20;;
44822;SDS011;51097;51.984;5.650;2023-08-20T13:20:02;2.38;;;0.73;;
44822;SDS011;51097;51.984;5.650;2023-08-20T13:22:30;3.92;;;1.40;;
44822;SDS011;51097;51.984;5.650;2023-08-20T13:24:55;2.42;;;0.90;;
44822;SDS011;51097;51.984;5.650;2023-08-20T13:27:21;2.63;;;0.93;;
44822;SDS011;51097;51.984;5.650;2023-08-20T13:29:46;3.15;;;1.10;;
44822;SDS011;51097;51.984;5.650;2023-08-20T13:32:12;2.50;;;0.82;;
44822;SDS011;51097;51.984;5.650;2023-08-20T13:34:40;3.40;;;1.73;;
44822;SDS011;51097;51.984;5.650;2023-08-20T13:37:06;2.13;;;0.93;;
44822;SDS011;51097;51.984;5.650;2023-08-20T13:39:32;4.40;;;1.10;;
44822;SDS011;51097;51.984;5.650;2023-08-20T13:41:57;3.10;;;0.70;;
44822;SDS011;51097;51.984;5.650;2023-08-20T13:44:23;3.30;;;0.77;;
44822;SDS011;51097;51.984;5.650;2023-08-20T13:46:48;1.98;;;1.00;;
44822;SDS011;51097;51.984;5.650;2023-08-20T13:49:14;4.32;;;1.20;;
44822;SDS011;51097;51.984;5.650;2023-08-20T13:51:40;3.55;;;1.00;;
44822;SDS011;51097;51.984;5.650;2023-08-20T13:54:05;3.97;;;1.17;;
44822;SDS011;51097;51.984;5.650;2023-08-20T13:56:31;3.58;;;1.02;;
44822;SDS011;51097;51.984;5.650;2023-08-20T13:59:04;3.03;;;0.85;;
44822;SDS011;51097;51.984;5.650;2023-08-20T14:01:30;2.92;;;1.00;;
44822;SDS011;51097;51.984;5.650;2023-08-20T14:03:55;4.82;;;0.73;;
44822;SDS011;51097;51.984;5.650;2023-08-20T14:06:21;2.97;;;1.10;;
44822;SDS011;51097;51.984;5.650;2023-08-20T14:08:47;4.63;;;0.90;;
44822;SDS011;51097;51.984;5.650;2023-08-20T14:11:13;4.95;;;1.10;;
44822;SDS011;51097;51.984;5.650;2023-08-20T14:13:39;4.47;;;1.42;;
44822;SDS011;51097;51.984;5.650;2023-08-20T14:16:05;1.88;;;0.70;;
44822;SDS011;51097;51.984;5.650;2023-08-20T14:18:30;4.82;;;1.10;;
44822;SDS011;51097;51.984;5.650;2023-08-20T14:20:56;4.57;;;1.52;;
44822;SDS011;51097;51.984;5.650;2023-08-20T14:23:22;4.15;;;1.63;;
44822;SDS011;51097;51.984;5.650;2023-08-20T14:25:47;5.95;;;1.25;;
44822;SDS011;51097;51.984;5.650;2023-08-20T14:28:13;4.20;;;1.60;;
44822;SDS011;51097;51.984;5.650;2023-08-20T14:30:38;7.03;;;1.17;;
44822;SDS011;51097;51.984;5.650;2023-08-20T14:33:05;3.60;;;1.00;;
44822;SDS011;51097;51.984;5.650;2023-08-20T14:35:31;2.67;;;1.00;;
44822;SDS011;51097;51.984;5.650;2023-08-20T14:37:57;6.80;;;1.33;;
44822;SDS011;51097;51.984;5.650;2023-08-20T14:40:23;4.78;;;1.20;;
44822;SDS011;51097;51.984;5.650;2023-08-20T14:42:48;3.15;;;1.00;;
44822;SDS011;51097;51.984;5.650;2023-08-20T14:45:14;2.63;;;0.90;;
44822;SDS011;51097;51.984;5.650;2023-08-20T14:47:40;4.22;;;1.42;;
44822;SDS011;51097;51.984;5.650;2023-08-20T14:50:06;3.45;;;0.88;;
44822;SDS011;51097;51.984;5.650;2023-08-20T14:52:32;3.50;;;1.05;;